Time;durP1;ratioP1;P1;durP2;ratioP2;P2;SDS_P1;SDS_P2;PMS_P1;PMS_P2;Temp;Humidity;BMP_temperature;BMP_pressure;BME280_temperature;BME280_humidity;BME280_pressure;Samples;Min_cycle;Max_cycle;Signal;HPM_P1;HPM_P2
2021/09/28 00:02:00;;;;;;;2.28;0.80;;;7.70;99.90;;;;;;5030731;28;20055;-67
2021/09/28 00:04:25;;;;;;;1.92;0.57;;;7.70;99.90;;;;;;5030894;28;20026;-67
2021/09/28 00:06:51;;;;;;;1.25;0.68;;;7.70;99.90;;;;;;5030384;28;20503;-67
2021/09/28 00:09:17;;;;;;;2.05;0.80;;;7.80;99.90;;;;;;5030720;28;20037;-67
2021/09/28 00:11:42;;;;;;;4.05;0.55;;;7.70;99.90;;;;;;5030676;28;20408;-67
2021/09/28 00:14:08;;;;;;;3.50;0.60;;;7.70;99.90;;;;;;5030727;28;20461;-67
2021/09/28 00:16:34;;;;;;;1.30;0.70;;;7.70;99.90;;;;;;5030152;28;20435;-66
2021/09/28 00:19:00;;;;;;;3.30;0.57;;;7.70;99.90;;;;;;5030282;28;20108;-66
2021/09/28 00:21:27;;;;;;;4.35;0.77;;;7.70;99.90;;;;;;5030291;28;20041;-66
2021/09/28 00:23:52;;;;;;;4.43;0.82;;;7.60;99.90;;;;;;5030472;28;20131;-66
2021/09/28 00:26:18;;;;;;;3.60;0.57;;;7.60;99.90;;;;;;5030101;28;20519;-66
2021/09/28 00:28:44;;;;;;;1.05;0.57;;;7.60;99.90;;;;;;5030145;28;20029;-66
2021/09/28 00:31:10;;;;;;;1.65;0.80;;;7.60;99.90;;;;;;5030081;28;20033;-66
2021/09/28 00:33:35;;;;;;;2.28;0.80;;;7.50;99.90;;;;;;5029969;28;20490;-66
2021/09/28 00:36:01;;;;;;;4.57;0.88;;;7.50;99.90;;;;;;5030422;28;20051;-66
2021/09/28 00:38:27;;;;;;;2.70;0.80;;;7.60;99.90;;;;;;5030427;28;20045;-66
2021/09/28 00:40:53;;;;;;;2.40;0.95;;;7.60;99.90;;;;;;5029869;28;20037;-66
2021/09/28 00:43:19;;;;;;;1.67;0.90;;;7.60;99.90;;;;;;5030001;28;20035;-66
2021/09/28 00:45:44;;;;;;;1.83;0.98;;;7.60;99.90;;;;;;5029793;28;20021;-67
2021/09/28 00:48:10;;;;;;;3.85;0.80;;;7.60;99.90;;;;;;5029988;28;20390;-66
2021/09/28 00:50:36;;;;;;;3.70;0.70;;;7.60;99.90;;;;;;5029658;28;20082;-66
2021/09/28 00:53:04;;;;;;;3.20;0.82;;;7.50;99.90;;;;;;5029968;28;20025;-66
2021/09/28 00:55:30;;;;;;;2.55;0.80;;;7.40;99.90;;;;;;5029888;28;20082;-66
2021/09/28 00:58:08;;;;;;;4.03;1.13;;;7.40;99.90;;;;;;4990468;28;20133;-66
2021/09/28 01:00:34;;;;;;;1.75;0.85;;;7.40;99.90;;;;;;4990525;28;20042;-66
2021/09/28 01:03:00;;;;;;;1.60;0.80;;;7.40;99.90;;;;;;4990821;28;20030;-66
2021/09/28 01:05:27;;;;;;;2.80;0.80;;;7.30;99.90;;;;;;4990817;28;20038;-66
2021/09/28 01:07:52;;;;;;;1.58;0.70;;;7.30;99.90;;;;;;4990399;28;20482;-67
2021/09/28 01:10:18;;;;;;;1.23;0.70;;;7.30;99.90;;;;;;4990610;28;20070;-66
2021/09/28 01:12:44;;;;;;;0.75;0.75;;;7.30;99.90;;;;;;4990567;28;20471;-66
2021/09/28 01:15:10;;;;;;;1.38;0.80;;;7.30;99.90;;;;;;4990572;28;20483;-66
2021/09/28 01:17:36;;;;;;;4.47;0.82;;;7.30;99.90;;;;;;4990275;28;20030;-66
2021/09/28 01:20:02;;;;;;;2.10;0.80;;;7.30;99.90;;;;;;4990076;28;20027;-66
2021/09/28 01:22:27;;;;;;;4.20;0.90;;;7.30;99.90;;;;;;4990268;28;20125;-66
2021/09/28 01:24:53;;;;;;;3.63;0.75;;;7.30;99.90;;;;;;4990272;28;20101;-66
2021/09/28 01:27:19;;;;;;;2.67;0.70;;;7.30;99.90;;;;;;4990225;28;20384;-66
2021/09/28 01:29:45;;;;;;;4.70;0.80;;;7.30;99.90;;;;;;4989128;28;20038;-66
2021/09/28 01:32:11;;;;;;;8.18;1.00;;;7.20;99.90;;;;;;4990103;28;20056;-66
2021/09/28 01:34:37;;;;;;;6.53;0.88;;;7.20;99.90;;;;;;4990054;28;20030;-66
2021/09/28 01:37:03;;;;;;;10.90;0.88;;;7.20;99.90;;;;;;4989971;28;20037;-66
2021/09/28 01:39:28;;;;;;;4.13;1.55;;;7.20;99.90;;;;;;4990260;28;20104;-67
2021/09/28 01:41:54;;;;;;;4.75;0.90;;;7.20;99.90;;;;;;4989805;28;20550;-66
2021/09/28 01:44:21;;;;;;;16.83;1.20;;;7.20;99.90;;;;;;4990005;28;20022;-66
2021/09/28 01:46:48;;;;;;;6.50;0.90;;;7.10;99.90;;;;;;4989916;28;20030;-66
2021/09/28 01:49:16;;;;;;;5.95;0.98;;;7.10;99.90;;;;;;4990081;28;20472;-66
2021/09/28 01:51:42;;;;;;;1.23;0.77;;;7.00;99.90;;;;;;4989628;28;20031;-66
2021/09/28 01:54:09;;;;;;;3.03;0.82;;;6.90;99.90;;;;;;4990089;28;20121;-66
2021/09/28 01:56:35;;;;;;;1.73;0.85;;;6.90;99.90;;;;;;5006963;28;20041;-67
2021/09/28 01:59:03;;;;;;;3.30;0.93;;;6.90;99.90;;;;;;5029145;28;20074;-66
2021/09/28 02:01:29;;;;;;;1.35;0.90;;;6.90;99.90;;;;;;5028916;28;20078;-66
2021/09/28 02:03:55;;;;;;;1.15;0.90;;;6.90;99.90;;;;;;5028778;28;20018;-66
2021/09/28 02:06:25;;;;;;;2.60;0.90;;;6.90;99.90;;;;;;5028877;28;20061;-66
2021/09/28 02:08:51;;;;;;;1.52;0.90;;;6.90;99.90;;;;;;5029071;28;20098;-66
2021/09/28 02:11:17;;;;;;;6.82;0.90;;;6.90;99.90;;;;;;5029005;28;20048;-66
2021/09/28 02:13:43;;;;;;;5.40;1.00;;;6.90;99.90;;;;;;5029030;28;20381;-66
2021/09/28 02:16:10;;;;;;;3.28;0.80;;;6.90;99.90;;;;;;5029041;28;20022;-66
2021/09/28 02:18:36;;;;;;;2.17;0.88;;;6.90;99.90;;;;;;5029010;28;20025;-66
2021/09/28 02:21:02;;;;;;;4.90;0.90;;;6.80;99.90;;;;;;5028359;28;20037;-67
2021/09/28 02:55:17;;;;;;;1.02;0.73;;;6.50;99.90;;;;;;5031413;28;20366;-66
2021/09/28 02:57:43;;;;;;;1.33;0.90;;;6.50;99.90;;;;;;5031507;28;20052;-66
2021/09/28 03:00:09;;;;;;;3.00;0.77;;;6.50;99.90;;;;;;5031711;28;20025;-66
2021/09/28 03:02:35;;;;;;;5.43;0.90;;;6.40;99.90;;;;;;5031883;28;20029;-67
2021/09/28 03:05:01;;;;;;;4.93;0.90;;;6.40;99.90;;;;;;5031697;28;20030;-67
2021/09/28 03:07:26;;;;;;;2.10;0.90;;;6.40;99.90;;;;;;5031560;28;20017;-67
2021/09/28 03:09:52;;;;;;;8.27;0.88;;;6.50;99.90;;;;;;5031394;28;20044;-67
2021/09/28 03:12:18;;;;;;;4.68;0.93;;;6.50;99.90;;;;;;5031566;28;20060;-66
2021/09/28 03:14:43;;;;;;;6.70;1.35;;;6.50;99.90;;;;;;5031750;28;20501;-66
2021/09/28 03:17:09;;;;;;;4.50;1.00;;;6.50;99.90;;;;;;5031246;28;20022;-66
2021/09/28 03:19:35;;;;;;;7.05;1.10;;;6.40;99.90;;;;;;5031467;28;20034;-66
2021/09/28 03:22:01;;;;;;;8.68;1.05;;;6.40;99.90;;;;;;5031009;28;20026;-66
2021/09/28 03:24:26;;;;;;;11.70;1.50;;;6.30;99.90;;;;;;5031528;28;20026;-67
2021/09/28 03:26:52;;;;;;;7.75;2.42;;;6.30;99.90;;;;;;5031067;28;20029;-67
2021/09/28 03:29:18;;;;;;;6.13;1.23;;;6.20;99.90;;;;;;5031252;28;20060;-67
2021/09/28 03:31:44;;;;;;;4.55;1.08;;;6.10;99.90;;;;;;5031421;28;20025;-67
2021/09/28 03:34:10;;;;;;;5.30;1.27;;;6.00;99.90;;;;;;5031198;28;20372;-67
2021/09/28 03:36:35;;;;;;;6.05;0.95;;;6.00;99.90;;;;;;5031342;28;20595;-67
2021/09/28 03:39:01;;;;;;;3.17;0.88;;;6.10;99.90;;;;;;5030935;28;20465;-67
2021/09/28 03:41:27;;;;;;;3.53;1.38;;;6.10;99.90;;;;;;5031152;28;20041;-67
2021/09/28 03:43:52;;;;;;;12.65;1.48;;;6.10;99.90;;;;;;5031052;28;20405;-66
2021/09/28 03:46:18;;;;;;;5.65;1.52;;;6.10;99.90;;;;;;5030695;28;20033;-66
2021/09/28 03:48:44;;;;;;;8.45;2.50;;;6.00;99.90;;;;;;5031281;28;20045;-66
2021/09/28 03:51:10;;;;;;;25.23;3.00;;;6.10;99.90;;;;;;5030206;28;20041;-66
2021/09/28 03:53:35;;;;;;;17.48;2.90;;;6.10;99.90;;;;;;5030891;28;20113;-66
2021/09/28 03:56:01;;;;;;;47.63;3.97;;;6.10;99.90;;;;;;5030815;28;20044;-66
2021/09/28 03:58:27;;;;;;;45.40;3.70;;;6.10;99.90;;;;;;5031165;28;20068;-66
2021/09/28 04:00:54;;;;;;;56.45;5.00;;;6.20;99.90;;;;;;5031225;28;20053;-66
2021/09/28 04:03:19;;;;;;;55.30;4.28;;;6.20;99.90;;;;;;5030930;28;20027;-66
2021/09/28 04:05:45;;;;;;;29.90;3.25;;;6.10;99.90;;;;;;5030604;28;20030;-66
2021/09/28 04:08:11;;;;;;;35.15;2.92;;;6.10;99.90;;;;;;5030527;28;20022;-66
2021/09/28 04:10:37;;;;;;;36.58;3.67;;;6.10;99.90;;;;;;5030689;28;20041;-66
2021/09/28 04:13:06;;;;;;;49.17;4.57;;;6.00;99.90;;;;;;5030677;28;20025;-66
2021/09/28 04:15:38;;;;;;;12.93;3.45;;;6.00;99.90;;;;;;5030459;28;20072;-66
2021/09/28 04:18:05;;;;;;;46.63;4.90;;;6.00;99.90;;;;;;5030331;28;20026;-66
2021/09/28 04:20:38;;;;;;;32.45;3.95;;;6.10;99.90;;;;;;5030278;28;20021;-66
2021/09/28 04:23:04;;;;;;;21.65;3.78;;;6.10;99.90;;;;;;5030329;28;20045;-66
2021/09/28 04:25:30;;;;;;;18.50;3.10;;;6.10;99.90;;;;;;5030561;28;20025;-66
2021/09/28 04:27:56;;;;;;;19.90;3.22;;;6.10;99.90;;;;;;5030613;28;20049;-66
2021/09/28 04:30:22;;;;;;;20.85;4.30;;;6.10;99.90;;;;;;5030203;28;20441;-67
2021/09/28 04:32:48;;;;;;;20.75;3.28;;;6.10;99.90;;;;;;5030123;28;20054;-65
2021/09/28 04:35:13;;;;;;;17.02;3.38;;;6.10;99.90;;;;;;5030267;28;20112;-66
2021/09/28 04:37:39;;;;;;;21.88;4.28;;;6.10;99.90;;;;;;5029933;28;20025;-66
2021/09/28 04:40:06;;;;;;;14.77;3.42;;;6.40;99.90;;;;;;5030154;28;20040;-65
2021/09/28 04:42:32;;;;;;;18.48;5.45;;;6.80;99.90;;;;;;5030102;28;20381;-66
2021/09/28 04:44:57;;;;;;;17.23;4.63;;;6.80;99.90;;;;;;5029794;28;20033;-65
2021/09/28 04:47:23;;;;;;;25.08;4.15;;;6.70;99.90;;;;;;5029757;28;20040;-65
2021/09/28 04:49:49;;;;;;;27.33;3.40;;;6.50;99.90;;;;;;5029899;28;20418;-65
2021/09/28 04:52:14;;;;;;;18.30;3.92;;;6.30;99.90;;;;;;5029886;28;20546;-64
2021/09/28 04:54:40;;;;;;;68.38;5.88;;;6.20;99.90;;;;;;5028613;28;20021;-65
2021/09/28 04:57:06;;;;;;;16.90;4.03;;;6.20;99.90;;;;;;5029315;28;20045;-64
2021/09/28 04:59:34;;;;;;;27.40;3.63;;;6.20;99.90;;;;;;5029781;28;20033;-64
2021/09/28 05:02:00;;;;;;;20.75;4.05;;;6.10;99.90;;;;;;5029749;28;20141;-64
2021/09/28 05:04:26;;;;;;;23.20;3.83;;;6.10;99.90;;;;;;5028468;28;20469;-64
2021/09/28 05:06:51;;;;;;;17.60;4.10;;;6.20;99.90;;;;;;5029693;28;20035;-64
2021/09/28 05:09:17;;;;;;;26.90;3.83;;;6.10;99.90;;;;;;5029188;28;20021;-64
2021/09/28 05:11:43;;;;;;;20.20;4.00;;;6.20;99.90;;;;;;5029672;28;20064;-64
2021/09/28 05:14:08;;;;;;;27.05;3.38;;;6.20;99.90;;;;;;5029147;28;20030;-64
2021/09/28 05:16:34;;;;;;;20.33;4.22;;;6.20;99.90;;;;;;5029408;28;20030;-64
2021/09/28 05:19:00;;;;;;;27.40;4.93;;;6.20;99.90;;;;;;5029657;28;20029;-64
2021/09/28 05:21:26;;;;;;;14.80;4.20;;;6.20;99.90;;;;;;5029487;28;20117;-65
2021/09/28 05:23:52;;;;;;;27.15;4.68;;;6.20;99.90;;;;;;5029692;28;20026;-64
2021/09/28 05:26:17;;;;;;;20.15;4.25;;;6.10;99.90;;;;;;5029428;28;20373;-65
2021/09/28 05:28:43;;;;;;;25.88;4.68;;;6.10;99.90;;;;;;5029570;28;20439;-65
2021/09/28 05:31:09;;;;;;;28.92;5.75;;;6.20;99.90;;;;;;5028786;28;20057;-65
2021/09/28 05:33:35;;;;;;;34.63;5.82;;;6.20;99.90;;;;;;5029202;28;20442;-65
2021/09/28 05:36:02;;;;;;;39.55;5.88;;;6.20;99.90;;;;;;5029271;28;20029;-65
2021/09/28 05:38:28;;;;;;;23.30;4.35;;;6.20;99.90;;;;;;5028924;28;20047;-65
2021/09/28 05:40:54;;;;;;;14.32;4.10;;;6.20;99.90;;;;;;5028657;28;20030;-65
2021/09/28 05:43:20;;;;;;;18.08;4.30;;;6.30;99.90;;;;;;5028998;28;20068;-65
2021/09/28 05:45:46;;;;;;;20.40;3.80;;;6.30;99.90;;;;;;5028989;28;20056;-65
2021/09/28 05:48:11;;;;;;;20.95;3.95;;;6.40;99.90;;;;;;5028809;28;20044;-65
2021/09/28 05:50:38;;;;;;;17.92;3.97;;;6.40;99.90;;;;;;5028638;28;20033;-65
2021/09/28 05:53:08;;;;;;;13.95;4.30;;;6.50;99.90;;;;;;5028736;28;20497;-65
2021/09/28 05:55:34;;;;;;;47.08;8.77;;;6.60;99.90;;;;;;5028755;28;20030;-65
2021/09/28 05:58:00;;;;;;;13.85;5.35;;;6.60;99.90;;;;;;5028718;28;20388;-65
2021/09/28 06:00:26;;;;;;;7.25;3.03;;;6.70;99.90;;;;;;5028564;28;20433;-65
2021/09/28 06:02:52;;;;;;;8.38;3.55;;;6.70;99.90;;;;;;5028677;28;20147;-64
2021/09/28 06:05:20;;;;;;;12.05;2.63;;;6.80;99.90;;;;;;5028537;28;20121;-66
2021/09/28 06:07:46;;;;;;;10.55;3.10;;;6.80;99.90;;;;;;5028888;28;20521;-64
2021/09/28 06:10:12;;;;;;;5.53;1.90;;;6.90;99.90;;;;;;5028130;28;20065;-67
2021/09/28 06:12:38;;;;;;;21.95;4.38;;;7.00;99.90;;;;;;5028562;28;20104;-66
2021/09/28 06:15:04;;;;;;;10.80;3.63;;;7.70;99.90;;;;;;5030333;28;20389;-65
2021/09/28 06:17:30;;;;;;;12.23;3.08;;;8.00;99.90;;;;;;5031916;28;20025;-65
2021/09/28 06:19:56;;;;;;;13.63;3.28;;;7.90;99.90;;;;;;5031968;28;20028;-64
2021/09/28 06:22:21;;;;;;;15.60;2.88;;;7.70;99.90;;;;;;5031924;28;20025;-65
2021/09/28 06:24:47;;;;;;;13.60;2.88;;;7.60;99.90;;;;;;5032067;28;20480;-65
2021/09/28 06:27:13;;;;;;;28.55;3.08;;;7.60;99.90;;;;;;5032110;28;20033;-65
2021/09/28 06:29:39;;;;;;;17.75;3.00;;;7.60;99.90;;;;;;5032064;28;20030;-65
2021/09/28 06:32:05;;;;;;;11.73;2.70;;;7.50;99.90;;;;;;5031826;28;20104;-65
2021/09/28 06:34:31;;;;;;;5.70;2.65;;;7.60;99.90;;;;;;5031929;28;20400;-65
2021/09/28 06:36:56;;;;;;;7.78;2.60;;;7.60;99.90;;;;;;5031591;28;20089;-65
2021/09/28 06:39:22;;;;;;;6.32;3.00;;;7.70;99.90;;;;;;5031560;28;20073;-65
2021/09/28 06:41:48;;;;;;;13.45;3.00;;;7.70;99.90;;;;;;5031816;28;20074;-65
2021/09/28 06:44:14;;;;;;;5.53;1.83;;;7.80;99.90;;;;;;5031748;28;20018;-70
2021/09/28 06:46:40;;;;;;;4.25;2.28;;;8.00;99.90;;;;;;5031511;28;20104;-65
2021/09/28 06:49:06;;;;;;;2.55;1.88;;;9.30;99.90;;;;;;5031749;28;20648;-65
2021/09/28 06:51:31;;;;;;;3.17;1.70;;;9.60;99.90;;;;;;5031213;28;19913;-65
2021/09/28 06:53:57;;;;;;;5.05;1.95;;;9.40;99.90;;;;;;5031511;28;20025;-67
2021/09/28 06:56:23;;;;;;;2.28;1.90;;;9.10;99.90;;;;;;5031428;28;20073;-67
2021/09/28 06:58:50;;;;;;;1.92;1.60;;;9.00;99.90;;;;;;5031786;28;20473;-67
2021/09/28 07:01:16;;;;;;;2.00;1.77;;;9.00;99.90;;;;;;5031586;28;20030;-67
2021/09/28 07:03:42;;;;;;;3.65;2.10;;;9.10;99.90;;;;;;5031480;28;20082;-67
2021/09/28 07:06:07;;;;;;;2.45;1.88;;;9.10;99.90;;;;;;5031248;28;20120;-67
2021/09/28 07:08:33;;;;;;;3.00;2.00;;;9.40;99.90;;;;;;5031268;28;20036;-67
2021/09/28 07:10:59;;;;;;;7.57;3.55;;;9.50;99.90;;;;;;5031208;28;20055;-67
2021/09/28 07:13:25;;;;;;;15.50;11.02;;;9.50;99.90;;;;;;5031199;28;20021;-67
2021/09/28 07:15:51;;;;;;;7.30;5.35;;;9.50;99.90;;;;;;5031269;28;20362;-67
2021/09/28 07:18:17;;;;;;;5.38;3.22;;;9.50;99.90;;;;;;5029641;28;20061;-67
2021/09/28 07:20:44;;;;;;;2.45;2.20;;;9.50;99.90;;;;;;5030906;28;20123;-68
2021/09/28 07:23:10;;;;;;;8.45;2.88;;;9.50;99.90;;;;;;5031224;28;20029;-67
2021/09/28 07:25:35;;;;;;;7.40;3.08;;;9.50;99.90;;;;;;5030522;28;20495;-66
2021/09/28 07:28:02;;;;;;;8.93;2.50;;;9.60;99.90;;;;;;5030342;28;20021;-65
2021/09/28 07:30:29;;;;;;;5.00;2.90;;;9.60;99.90;;;;;;5029995;28;20065;-65
2021/09/28 07:32:55;;;;;;;9.10;3.53;;;9.70;99.90;;;;;;5030778;28;20029;-65
2021/09/28 07:35:21;;;;;;;13.82;3.20;;;9.80;99.90;;;;;;5031087;28;20032;-65
2021/09/28 07:37:47;;;;;;;12.93;3.50;;;9.80;99.90;;;;;;5030705;28;20366;-65
2021/09/28 07:40:13;;;;;;;11.88;3.65;;;9.80;99.90;;;;;;5031008;28;20103;-66
2021/09/28 07:42:39;;;;;;;7.35;2.80;;;9.80;99.90;;;;;;5030951;28;20034;-65
2021/09/28 07:45:06;;;;;;;6.38;3.90;;;9.90;99.90;;;;;;5030985;28;20086;-65
2021/09/28 07:47:32;;;;;;;5.18;3.15;;;9.80;99.90;;;;;;5030758;28;20121;-65
2021/09/28 07:49:59;;;;;;;5.85;3.55;;;9.80;99.90;;;;;;5030866;28;20124;-65
2021/09/28 07:52:25;;;;;;;12.70;3.58;;;9.80;99.90;;;;;;5030698;28;20021;-66
2021/09/28 07:54:50;;;;;;;9.50;3.60;;;9.90;99.90;;;;;;5030546;28;20022;-65
2021/09/28 07:57:16;;;;;;;6.40;3.10;;;9.90;99.90;;;;;;5029975;28;20045;-66
2021/09/28 07:59:42;;;;;;;13.32;3.65;;;10.00;99.90;;;;;;5030045;28;20539;-66
2021/09/28 08:02:09;;;;;;;6.15;3.00;;;10.00;99.90;;;;;;5029741;28;20029;-66
2021/09/28 08:04:36;;;;;;;8.15;2.55;;;10.10;99.90;;;;;;5029389;28;20024;-65
2021/09/28 08:07:02;;;;;;;3.58;2.28;;;10.20;99.90;;;;;;5029739;28;20036;-65
2021/09/28 08:09:28;;;;;;;9.30;2.90;;;10.20;99.90;;;;;;5030008;28;20017;-67
2021/09/28 08:11:55;;;;;;;14.75;2.38;;;10.30;99.90;;;;;;5030334;28;20117;-67
2021/09/28 08:14:21;;;;;;;10.00;3.20;;;10.40;99.90;;;;;;5030218;28;20025;-67
2021/09/28 08:16:47;;;;;;;3.80;2.05;;;10.40;99.90;;;;;;5030255;28;20044;-67
2021/09/28 08:19:13;;;;;;;5.35;2.10;;;10.50;99.90;;;;;;5030206;28;20033;-67
2021/09/28 08:21:38;;;;;;;8.48;1.83;;;10.60;99.90;;;;;;5030047;28;20038;-67
2021/09/28 08:24:06;;;;;;;21.70;3.00;;;10.60;99.90;;;;;;5030156;28;20075;-67
2021/09/28 08:29:09;;;;;;;2.60;1.55;;;10.70;99.90;;;;;;5030324;28;20113;-68
2021/09/28 08:31:41;;;;;;;4.47;1.85;;;10.70;99.90;;;;;;5029640;28;20481;-65
2021/09/28 08:34:07;;;;;;;3.20;1.60;;;10.90;99.90;;;;;;5030023;28;20045;-66
2021/09/28 08:36:34;;;;;;;8.23;2.10;;;11.00;99.90;;;;;;5030035;28;20029;-65
2021/09/28 08:39:00;;;;;;;7.03;1.77;;;11.10;99.90;;;;;;5029729;28;20060;-63
2021/09/28 08:41:27;;;;;;;6.40;2.13;;;11.40;99.90;;;;;;5029679;28;20037;-66
2021/09/28 08:43:53;;;;;;;8.90;2.95;;;11.40;99.90;;;;;;5029989;28;20053;-66
2021/09/28 08:46:20;;;;;;;6.15;1.52;;;11.30;99.90;;;;;;5029513;28;20481;-64
2021/09/28 08:48:47;;;;;;;4.10;1.77;;;11.30;99.90;;;;;;5029665;28;20053;-63
2021/09/28 08:51:14;;;;;;;9.20;1.83;;;11.30;99.90;;;;;;5029658;28;20037;-64
2021/09/28 08:53:40;;;;;;;4.18;2.15;;;11.30;99.90;;;;;;5029183;28;20094;-62
2021/09/28 08:56:09;;;;;;;4.93;1.80;;;11.40;99.90;;;;;;5029293;28;20081;-63
2021/09/28 08:58:56;;;;;;;4.68;1.80;;;11.40;99.90;;;;;;5029851;28;20031;-64
2021/09/28 09:01:23;;;;;;;5.90;2.08;;;11.60;99.90;;;;;;5029572;28;20602;-67
2021/09/28 09:03:49;;;;;;;3.20;1.70;;;11.60;99.90;;;;;;5029785;28;20030;-65
2021/09/28 09:06:15;;;;;;;3.97;1.70;;;11.60;99.90;;;;;;5029812;28;20022;-66
2021/09/28 09:08:42;;;;;;;4.72;1.88;;;11.70;99.90;;;;;;5029841;28;20029;-66
2021/09/28 09:11:13;;;;;;;2.90;1.88;;;11.70;99.90;;;;;;5029672;28;20029;-66
2021/09/28 09:13:44;;;;;;;7.00;1.98;;;11.80;99.90;;;;;;5029558;28;20033;-66
2021/09/28 09:16:13;;;;;;;2.67;2.10;;;11.80;99.90;;;;;;5029866;28;20069;-66
2021/09/28 09:18:40;;;;;;;7.28;2.42;;;11.90;99.90;;;;;;5029653;28;20049;-66
2021/09/28 09:21:08;;;;;;;6.00;2.50;;;11.90;99.90;;;;;;5029823;28;20408;-66
2021/09/28 09:23:36;;;;;;;5.47;2.53;;;12.00;99.90;;;;;;5029265;28;20026;-66
2021/09/28 09:26:20;;;;;;;4.70;2.53;;;12.00;99.90;;;;;;5029409;28;20036;-67
2021/09/28 09:28:46;;;;;;;4.60;2.10;;;12.10;99.90;;;;;;5029424;28;20152;-66
2021/09/28 09:31:12;;;;;;;4.45;2.25;;;12.20;99.90;;;;;;5029078;28;20132;-66
2021/09/28 09:33:39;;;;;;;5.20;2.15;;;12.20;99.90;;;;;;5029058;28;20021;-67
2021/09/28 09:36:05;;;;;;;10.95;2.60;;;12.20;99.90;;;;;;5029130;28;20040;-67
2021/09/28 09:38:40;;;;;;;5.18;2.70;;;12.30;99.90;;;;;;5028842;28;20045;-67
2021/09/28 09:41:06;;;;;;;3.88;2.42;;;12.30;99.90;;;;;;5029453;28;20033;-67
2021/09/28 09:43:33;;;;;;;14.57;2.60;;;12.30;99.90;;;;;;5028825;28;20094;-67
2021/09/28 09:46:10;;;;;;;16.75;3.30;;;12.40;99.90;;;;;;5029313;28;20033;-67
2021/09/28 09:48:37;;;;;;;8.93;2.08;;;12.40;99.90;;;;;;5028511;28;20026;-66
2021/09/28 09:51:12;;;;;;;6.20;1.92;;;12.40;99.90;;;;;;5028694;28;20041;-65
2021/09/28 09:54:00;;;;;;;8.80;2.45;;;12.40;99.90;;;;;;5028712;28;20650;-65
2021/09/28 09:56:49;;;;;;;5.03;2.40;;;12.50;99.90;;;;;;5028742;28;20386;-68
2021/09/28 09:59:17;;;;;;;11.43;2.90;;;12.60;99.90;;;;;;5028911;28;20025;-67
2021/09/28 10:01:44;;;;;;;2.75;2.25;;;12.60;99.90;;;;;;5028464;28;20040;-67
2021/09/28 10:04:13;;;;;;;5.05;2.17;;;12.60;99.90;;;;;;5028941;28;20025;-67
2021/09/28 10:06:38;;;;;;;6.07;2.85;;;12.70;99.90;;;;;;5028611;28;20022;-67
2021/09/28 10:09:34;;;;;;;16.13;3.00;;;12.60;99.90;;;;;;5028672;28;20028;-67
2021/09/28 10:12:03;;;;;;;29.00;3.10;;;12.60;99.90;;;;;;5024847;28;20069;-67
2021/09/28 10:14:38;;;;;;;4.90;2.10;;;12.70;99.90;;;;;;5028468;28;20043;-67
2021/09/28 10:17:26;;;;;;;6.97;2.63;;;12.70;99.90;;;;;;5028445;28;20018;-67
2021/09/28 10:19:59;;;;;;;5.28;2.17;;;12.70;99.90;;;;;;5028487;28;20022;-67
2021/09/28 10:22:57;;;;;;;6.07;2.13;;;12.80;99.90;;;;;;5028707;28;20022;-67
2021/09/28 10:25:24;;;;;;;4.28;2.22;;;12.80;99.90;;;;;;5028290;28;20029;-67
2021/09/28 10:28:16;;;;;;;3.65;2.13;;;12.80;99.90;;;;;;5028420;28;20022;-67
2021/09/28 10:30:44;;;;;;;9.38;2.53;;;12.90;99.90;;;;;;5028044;28;20033;-67
2021/09/28 10:33:22;;;;;;;8.93;2.13;;;12.90;99.90;;;;;;5028409;28;20021;-67
2021/09/28 10:36:11;;;;;;;5.03;2.55;;;12.90;99.90;;;;;;5028490;28;20060;-67
2021/09/28 10:38:58;;;;;;;3.25;2.63;;;13.00;99.90;;;;;;5028312;28;20022;-67
2021/09/28 10:42:00;;;;;;;22.65;2.90;;;13.00;99.90;;;;;;5026898;28;20030;-67
2021/09/28 10:44:37;;;;;;;21.35;2.60;;;13.10;99.90;;;;;;5026063;28;20050;-67
2021/09/28 10:47:07;;;;;;;2.90;2.10;;;13.10;99.90;;;;;;5028404;28;20021;-67
2021/09/28 10:49:36;;;;;;;10.60;2.78;;;13.20;99.90;;;;;;5028454;28;20021;-67
2021/09/28 10:52:20;;;;;;;17.97;2.93;;;13.20;99.90;;;;;;5028122;28;20034;-67
2021/09/28 10:55:11;;;;;;;5.30;2.40;;;13.30;99.90;;;;;;5028251;28;20030;-68
2021/09/28 10:58:09;;;;;;;5.28;2.30;;;13.30;99.90;;;;;;5027805;28;20375;-66
2021/09/28 11:00:38;;;;;;;22.55;2.75;;;13.40;99.90;;;;;;5027723;28;20436;-66
2021/09/28 11:03:04;;;;;;;15.68;2.80;;;13.40;99.90;;;;;;5031239;28;20029;-67
2021/09/28 11:05:30;;;;;;;19.27;2.90;;;13.50;99.90;;;;;;5031531;28;20078;-67
2021/09/28 11:08:00;;;;;;;3.03;1.90;;;13.50;99.90;;;;;;5031480;28;20097;-67
2021/09/28 11:10:26;;;;;;;;;;;13.60;99.90;;;;;;5031775;28;20037;-65
2021/09/28 11:12:52;;;;;;;6.50;1.98;;;13.50;99.90;;;;;;5031352;28;20383;-65
2021/09/28 11:15:26;;;;;;;5.47;2.55;;;13.50;99.90;;;;;;5031253;28;20029;-65
2021/09/28 11:17:52;;;;;;;8.35;2.40;;;13.60;99.90;;;;;;5031251;28;20018;-65
2021/09/28 11:20:28;;;;;;;17.80;2.63;;;13.60;99.90;;;;;;5031150;28;20049;-65
2021/09/28 11:23:13;;;;;;;2.67;2.20;;;13.50;99.90;;;;;;5031438;28;20472;-65
2021/09/28 11:25:47;;;;;;;34.22;3.63;;;13.50;99.90;;;;;;5031078;28;20025;-65
2021/09/28 11:28:18;;;;;;;5.22;2.20;;;13.50;99.90;;;;;;5031119;28;20021;-67
2021/09/28 11:30:52;;;;;;;12.90;3.42;;;13.50;99.90;;;;;;5031078;28;20037;-67
2021/09/28 11:33:19;;;;;;;5.85;2.22;;;13.50;99.90;;;;;;5031035;28;20509;-67
2021/09/28 11:36:03;;;;;;;10.82;3.05;;;13.50;99.90;;;;;;5031043;28;20029;-67
2021/09/28 11:38:34;;;;;;;11.25;2.72;;;13.50;99.90;;;;;;5031111;28;20497;-67
2021/09/28 11:41:10;;;;;;;8.88;2.08;;;13.40;99.90;;;;;;5031065;28;20643;-65
2021/09/28 11:43:37;;;;;;;6.25;2.42;;;13.50;99.90;;;;;;5031087;28;20026;-67
2021/09/28 11:46:05;;;;;;;14.52;2.30;;;13.50;99.90;;;;;;5030904;28;20238;-67
2021/09/28 11:48:59;;;;;;;17.95;2.30;;;13.60;99.90;;;;;;5030652;28;20026;-67
2021/09/28 11:51:27;;;;;;;9.32;2.17;;;13.60;99.90;;;;;;5030938;28;20405;-67
2021/09/28 11:53:58;;;;;;;10.25;2.08;;;13.60;99.90;;;;;;5030716;28;20021;-67
2021/09/28 11:56:27;;;;;;;6.45;1.98;;;13.60;99.90;;;;;;5030768;28;20338;-66
2021/09/28 11:58:54;;;;;;;8.25;1.80;;;13.60;99.90;;;;;;5030437;28;20032;-69
2021/09/28 12:01:22;;;;;;;5.28;1.83;;;13.70;99.90;;;;;;5030688;28;20022;-67
2021/09/28 12:07:56;;;;;;;6.95;2.00;;;14.40;99.90;;;;;;5030262;28;20074;-66
2021/09/28 12:10:00;;;;;;;1.90;1.63;;;14.00;99.90;;;;;;5030210;28;20106;-66
2021/09/28 12:12:26;;;;;;;8.88;2.08;;;13.80;99.90;;;;;;5029924;28;20071;-67
2021/09/28 12:14:54;;;;;;;4.20;1.98;;;13.70;99.90;;;;;;5030431;28;20029;-66
2021/09/28 12:17:21;;;;;;;22.35;3.25;;;13.60;99.90;;;;;;5030164;28;20022;-66
2021/09/28 12:19:50;;;;;;;13.20;2.22;;;13.60;99.90;;;;;;5029885;28;20105;-66
2021/09/28 12:22:27;;;;;;;4.53;1.67;;;13.60;99.90;;;;;;5030141;28;20018;-66
2021/09/28 12:24:54;;;;;;;21.00;2.53;;;13.60;99.90;;;;;;5030032;28;20117;-66
2021/09/28 12:27:22;;;;;;;3.78;1.83;;;13.60;99.90;;;;;;5030168;28;20052;-66
2021/09/28 12:29:50;;;;;;;6.38;2.20;;;13.50;99.90;;;;;;5030223;28;20119;-66
2021/09/28 12:32:24;;;;;;;2.88;2.00;;;13.50;99.90;;;;;;5029868;28;20041;-64
2021/09/28 12:35:00;;;;;;;5.32;2.50;;;13.50;99.90;;;;;;5030508;28;20029;-65
2021/09/28 12:37:28;;;;;;;9.45;2.38;;;13.50;99.90;;;;;;5030331;28;20109;-65
2021/09/28 12:40:07;;;;;;;6.70;1.85;;;13.50;99.90;;;;;;5030291;28;20056;-65
2021/09/28 12:42:35;;;;;;;6.40;2.00;;;13.50;99.90;;;;;;5029940;28;20504;-65
2021/09/28 12:45:07;;;;;;;4.93;1.85;;;13.50;99.90;;;;;;5030257;28;20041;-67
2021/09/28 12:47:44;;;;;;;7.25;2.20;;;13.50;99.90;;;;;;5029661;28;20430;-67
2021/09/28 12:50:21;;;;;;;5.50;1.90;;;13.50;99.90;;;;;;5029965;28;20072;-67
2021/09/28 12:53:08;;;;;;;3.42;1.55;;;13.50;99.90;;;;;;5029930;28;20034;-67
2021/09/28 12:55:37;;;;;;;3.25;1.98;;;13.50;99.90;;;;;;5029345;28;20033;-67
2021/09/28 12:58:08;;;;;;;3.40;1.90;;;13.50;99.90;;;;;;5009591;28;20050;-67
2021/09/28 13:00:34;;;;;;;5.75;1.80;;;13.50;99.90;;;;;;5009923;28;20030;-67
2021/09/28 13:03:02;;;;;;;3.58;1.98;;;13.60;99.90;;;;;;5009913;28;20503;-67
2021/09/28 13:05:29;;;;;;;12.73;2.45;;;13.60;99.90;;;;;;5010226;28;20026;-67
2021/09/28 13:07:55;;;;;;;22.17;2.20;;;13.60;99.90;;;;;;5009752;28;20033;-67
2021/09/28 13:10:22;;;;;;;10.57;2.20;;;13.60;99.90;;;;;;5010084;28;20041;-67
2021/09/28 13:12:48;;;;;;;5.70;1.77;;;13.60;99.90;;;;;;5009969;28;20046;-67
2021/09/28 13:15:19;;;;;;;6.95;2.25;;;13.60;99.90;;;;;;5009886;28;20030;-65
2021/09/28 13:17:46;;;;;;;33.92;3.17;;;13.60;99.90;;;;;;5009491;28;20022;-65
2021/09/28 13:20:14;;;;;;;10.02;2.20;;;13.60;99.90;;;;;;5009450;28;20026;-65
2021/09/28 13:22:40;;;;;;;9.15;2.10;;;13.60;99.90;;;;;;5009410;28;20030;-65
2021/09/28 13:25:07;;;;;;;4.35;1.60;;;13.50;99.90;;;;;;5008915;28;20101;-65
2021/09/28 13:27:33;;;;;;;2.40;1.80;;;13.50;99.90;;;;;;5009411;28;20026;-65
2021/09/28 13:29:59;;;;;;;11.35;2.00;;;13.50;99.90;;;;;;5009322;28;20041;-65
2021/09/28 13:32:25;;;;;;;4.25;1.83;;;13.50;99.90;;;;;;5009563;28;20110;-65
2021/09/28 13:34:51;;;;;;;8.27;2.72;;;13.50;99.90;;;;;;5029052;28;20057;-65